sensor_id;sensor_type;location;lat;lon;timestamp;temperature;humidity
3086;DHT22;52812;48.960;9.108;2022-08-05T00:01:20;22.60;99.90
3086;DHT22;52812;48.960;9.108;2022-08-05T00:03:49;22.60;99.90
3086;DHT22;52812;48.960;9.108;2022-08-05T00:06:16;22.50;99.90
3086;DHT22;52812;48.960;9.108;2022-08-05T00:08:42;22.30;99.90
3086;DHT22;52812;48.960;9.108;2022-08-05T00:11:10;22.20;99.90
3086;DHT22;52812;48.960;9.108;2022-08-05T00:13:37;22.10;99.90
3086;DHT22;52812;48.960;9.108;2022-08-05T00:16:04;22.00;99.90
3086;DHT22;52812;48.960;9.108;2022-08-05T00:18:30;21.80;99.90
3086;DHT22;52812;48.960;9.108;2022-08-05T00:20:56;21.80;99.90
3086;DHT22;52812;48.960;9.108;2022-08-05T00:23:23;21.90;99.90
3086;DHT22;52812;48.960;9.108;2022-08-05T00:25:49;21.70;99.90
3086;DHT22;52812;48.960;9.108;2022-08-05T00:28:15;21.60;99.90
3086;DHT22;52812;48.960;9.108;2022-08-05T00:30:40;21.60;99.90
3086;DHT22;52812;48.960;9.108;2022-08-05T00:33:06;21.70;99.90
3086;DHT22;52812;48.960;9.108;2022-08-05T00:35:32;21.80;99.90
3086;DHT22;52812;48.960;9.108;2022-08-05T00:37:58;21.80;99.90
3086;DHT22;52812;48.960;9.108;2022-08-05T00:40:25;21.80;99.90
3086;DHT22;52812;48.960;9.108;2022-08-05T00:42:51;21.80;99.90
3086;DHT22;52812;48.960;9.108;2022-08-05T00:45:17;21.70;99.90
3086;DHT22;52812;48.960;9.108;2022-08-05T00:47:42;21.80;99.90
3086;DHT22;52812;48.960;9.108;2022-08-05T00:50:08;21.60;99.90
3086;DHT22;52812;48.960;9.108;2022-08-05T00:52:34;21.60;99.90
3086;DHT22;52812;48.960;9.108;2022-08-05T00:55:00;21.60;99.90
3086;DHT22;52812;48.960;9.108;2022-08-05T00:57:25;21.70;99.90
3086;DHT22;52812;48.960;9.108;2022-08-05T00:59:51;21.80;99.90
3086;DHT22;52812;48.960;9.108;2022-08-05T01:02:17;21.80;99.90
3086;DHT22;52812;48.960;9.108;2022-08-05T01:04:42;21.70;99.90
3086;DHT22;52812;48.960;9.108;2022-08-05T01:07:08;21.60;99.90
3086;DHT22;52812;48.960;9.108;2022-08-05T01:09:34;21.50;99.90
3086;DHT22;52812;48.960;9.108;2022-08-05T01:12:11;21.50;99.90
3086;DHT22;52812;48.960;9.108;2022-08-05T01:19:59;21.40;99.90
3086;DHT22;52812;48.960;9.108;2022-08-05T01:22:56;21.50;99.90
3086;DHT22;52812;48.960;9.108;2022-08-05T01:28:59;21.70;99.90
3086;DHT22;52812;48.960;9.108;2022-08-05T01:31:38;21.70;99.90
3086;DHT22;52812;48.960;9.108;2022-08-05T01:37:21;21.70;99.90
3086;DHT22;52812;48.960;9.108;2022-08-05T01:39:48;21.60;99.90
3086;DHT22;52812;48.960;9.108;2022-08-05T01:42:18;21.50;99.90
3086;DHT22;52812;48.960;9.108;2022-08-05T01:44:45;21.60;99.90
3086;DHT22;52812;48.960;9.108;2022-08-05T01:47:15;21.70;99.90
3086;DHT22;52812;48.960;9.108;2022-08-05T01:49:41;21.60;99.90
3086;DHT22;52812;48.960;9.108;2022-08-05T01:52:09;21.60;99.90
3086;DHT22;52812;48.960;9.108;2022-08-05T01:54:42;21.90;99.90
3086;DHT22;52812;48.960;9.108;2022-08-05T01:57:10;22.00;99.90
3086;DHT22;52812;48.960;9.108;2022-08-05T01:59:38;22.10;99.90
3086;DHT22;52812;48.960;9.108;2022-08-05T02:02:05;22.20;99.90
3086;DHT22;52812;48.960;9.108;2022-08-05T02:04:34;22.40;99.90
3086;DHT22;52812;48.960;9.108;2022-08-05T02:07:01;22.70;99.90
3086;DHT22;52812;48.960;9.108;2022-08-05T02:09:26;22.80;99.90
3086;DHT22;52812;48.960;9.108;2022-08-05T02:12:07;22.80;99.90
3086;DHT22;52812;48.960;9.108;2022-08-05T02:14:39;22.80;99.90
3086;DHT22;52812;48.960;9.108;2022-08-05T02:17:10;22.90;99.90
3086;DHT22;52812;48.960;9.108;2022-08-05T02:19:42;22.90;99.90
3086;DHT22;52812;48.960;9.108;2022-08-05T02:22:29;22.90;99.90
3086;DHT22;52812;48.960;9.108;2022-08-05T02:25:01;22.90;99.90
3086;DHT22;52812;48.960;9.108;2022-08-05T02:27:29;22.90;99.90
3086;DHT22;52812;48.960;9.108;2022-08-05T02:29:58;22.90;99.90
3086;DHT22;52812;48.960;9.108;2022-08-05T02:32:26;22.80;99.90
3086;DHT22;52812;48.960;9.108;2022-08-05T02:34:53;22.70;99.90
3086;DHT22;52812;48.960;9.108;2022-08-05T02:37:19;22.60;99.90
3086;DHT22;52812;48.960;9.108;2022-08-05T02:39:46;22.40;99.90
3086;DHT22;52812;48.960;9.108;2022-08-05T02:42:12;22.30;99.90
3086;DHT22;52812;48.960;9.108;2022-08-05T02:44:39;22.10;99.90
3086;DHT22;52812;48.960;9.108;2022-08-05T02:47:08;21.90;99.90
3086;DHT22;52812;48.960;9.108;2022-08-05T02:49:35;21.80;99.90
3086;DHT22;52812;48.960;9.108;2022-08-05T02:52:02;21.70;99.90
3086;DHT22;52812;48.960;9.108;2022-08-05T02:54:30;21.60;99.90
3086;DHT22;52812;48.960;9.108;2022-08-05T02:56:57;21.60;99.90
3086;DHT22;52812;48.960;9.108;2022-08-05T02:59:23;21.70;99.90
3086;DHT22;52812;48.960;9.108;2022-08-05T03:01:50;21.70;99.90
3086;DHT22;52812;48.960;9.108;2022-08-05T03:04:22;21.80;99.90
3086;DHT22;52812;48.960;9.108;2022-08-05T03:06:47;21.90;99.90
3086;DHT22;52812;48.960;9.108;2022-08-05T03:09:14;21.90;99.90
3086;DHT22;52812;48.960;9.108;2022-08-05T03:11:43;21.90;99.90
3086;DHT22;52812;48.960;9.108;2022-08-05T03:14:09;21.90;99.90
3086;DHT22;52812;48.960;9.108;2022-08-05T03:16:35;21.80;99.90
3086;DHT22;52812;48.960;9.108;2022-08-05T03:19:00;21.70;99.90
3086;DHT22;52812;48.960;9.108;2022-08-05T03:21:26;21.60;99.90
3086;DHT22;52812;48.960;9.108;2022-08-05T03:23:52;21.50;99.90
3086;DHT22;52812;48.960;9.108;2022-08-05T03:26:18;21.50;99.90
3086;DHT22;52812;48.960;9.108;2022-08-05T03:28:44;21.50;99.90
3086;DHT22;52812;48.960;9.108;2022-08-05T03:31:10;21.40;99.90
3086;DHT22;52812;48.960;9.108;2022-08-05T03:33:36;21.40;99.90
3086;DHT22;52812;48.960;9.108;2022-08-05T03:36:02;21.30;99.90
3086;DHT22;52812;48.960;9.108;2022-08-05T03:38:27;21.20;99.90
3086;DHT22;52812;48.960;9.108;2022-08-05T03:40:53;21.10;99.90
3086;DHT22;52812;48.960;9.108;2022-08-05T03:43:20;21.00;99.90
3086;DHT22;52812;48.960;9.108;2022-08-05T03:45:46;21.10;99.90
3086;DHT22;52812;48.960;9.108;2022-08-05T03:48:12;21.10;99.90
3086;DHT22;52812;48.960;9.108;2022-08-05T03:50:47;21.10;99.90
3086;DHT22;52812;48.960;9.108;2022-08-05T03:53:20;20.90;99.90
3086;DHT22;52812;48.960;9.108;2022-08-05T03:55:52;20.90;99.90
3086;DHT22;52812;48.960;9.108;2022-08-05T03:58:21;21.00;99.90
3086;DHT22;52812;48.960;9.108;2022-08-05T04:00:50;21.10;99.90
3086;DHT22;52812;48.960;9.108;2022-08-05T04:03:17;21.00;99.90
3086;DHT22;52812;48.960;9.108;2022-08-05T04:05:44;20.90;99.90
3086;DHT22;52812;48.960;9.108;2022-08-05T04:08:10;21.00;99.90
3086;DHT22;52812;48.960;9.108;2022-08-05T04:10:37;21.00;99.90
3086;DHT22;52812;48.960;9.108;2022-08-05T04:13:05;21.00;99.90
3086;DHT22;52812;48.960;9.108;2022-08-05T04:15:31;21.10;99.90
3086;DHT22;52812;48.960;9.108;2022-08-05T04:18:01;21.10;99.90
3086;DHT22;52812;48.960;9.108;2022-08-05T04:20:28;21.20;99.90
3086;DHT22;52812;48.960;9.108;2022-08-05T04:22:53;21.30;99.90
3086;DHT22;52812;48.960;9.108;2022-08-05T04:25:19;21.40;99.90
3086;DHT22;52812;48.960;9.108;2022-08-05T04:27:44;21.50;99.90
3086;DHT22;52812;48.960;9.108;2022-08-05T04:30:10;21.60;99.90
3086;DHT22;52812;48.960;9.108;2022-08-05T04:32:36;21.80;99.90
3086;DHT22;52812;48.960;9.108;2022-08-05T04:35:02;22.00;99.90
3086;DHT22;52812;48.960;9.108;2022-08-05T04:37:28;22.00;99.90
3086;DHT22;52812;48.960;9.108;2022-08-05T04:39:53;22.00;99.90
3086;DHT22;52812;48.960;9.108;2022-08-05T04:42:20;22.10;99.90
3086;DHT22;52812;48.960;9.108;2022-08-05T04:44:45;22.10;99.90
3086;DHT22;52812;48.960;9.108;2022-08-05T04:47:11;22.10;99.90
3086;DHT22;52812;48.960;9.108;2022-08-05T04:49:38;22.10;99.90
3086;DHT22;52812;48.960;9.108;2022-08-05T04:52:04;22.20;99.90
3086;DHT22;52812;48.960;9.108;2022-08-05T04:54:29;22.20;99.90
3086;DHT22;52812;48.960;9.108;2022-08-05T04:56:55;22.20;99.90
3086;DHT22;52812;48.960;9.108;2022-08-05T04:59:21;22.30;99.90
3086;DHT22;52812;48.960;9.108;2022-08-05T05:01:51;22.30;99.90
3086;DHT22;52812;48.960;9.108;2022-08-05T05:04:16;22.30;99.90
3086;DHT22;52812;48.960;9.108;2022-08-05T05:06:42;22.40;99.90
3086;DHT22;52812;48.960;9.108;2022-08-05T05:09:10;22.50;99.90
3086;DHT22;52812;48.960;9.108;2022-08-05T05:11:36;22.50;99.90
3086;DHT22;52812;48.960;9.108;2022-08-05T05:14:01;22.70;99.90
3086;DHT22;52812;48.960;9.108;2022-08-05T05:16:28;23.00;99.90
3086;DHT22;52812;48.960;9.108;2022-08-05T05:18:53;23.20;99.90
3086;DHT22;52812;48.960;9.108;2022-08-05T05:21:19;23.40;99.90
3086;DHT22;52812;48.960;9.108;2022-08-05T05:23:44;23.60;99.90
3086;DHT22;52812;48.960;9.108;2022-08-05T05:26:10;23.90;99.90
3086;DHT22;52812;48.960;9.108;2022-08-05T05:28:36;24.10;99.90
3086;DHT22;52812;48.960;9.108;2022-08-05T05:31:01;24.30;99.90
3086;DHT22;52812;48.960;9.108;2022-08-05T05:33:27;24.50;99.90
3086;DHT22;52812;48.960;9.108;2022-08-05T05:35:52;24.70;99.90
3086;DHT22;52812;48.960;9.108;2022-08-05T05:38:18;24.90;99.90
3086;DHT22;52812;48.960;9.108;2022-08-05T05:40:44;25.20;99.90
3086;DHT22;52812;48.960;9.108;2022-08-05T05:43:09;25.40;99.90
3086;DHT22;52812;48.960;9.108;2022-08-05T05:45:35;25.70;99.90
3086;DHT22;52812;48.960;9.108;2022-08-05T05:48:01;25.90;99.90
3086;DHT22;52812;48.960;9.108;2022-08-05T05:50:27;26.20;99.90
3086;DHT22;52812;48.960;9.108;2022-08-05T05:52:52;26.70;99.90
3086;DHT22;52812;48.960;9.108;2022-08-05T05:55:18;27.20;99.90
3086;DHT22;52812;48.960;9.108;2022-08-05T05:57:45;27.70;99.90
3086;DHT22;52812;48.960;9.108;2022-08-05T06:00:16;27.50;99.90
3086;DHT22;52812;48.960;9.108;2022-08-05T06:02:44;27.70;99.90
3086;DHT22;52812;48.960;9.108;2022-08-05T06:05:11;27.40;99.90
3086;DHT22;52812;48.960;9.108;2022-08-05T06:07:37;27.30;99.90
3086;DHT22;52812;48.960;9.108;2022-08-05T06:10:05;28.10;99.90
3086;DHT22;52812;48.960;9.108;2022-08-05T06:12:30;28.60;99.90
3086;DHT22;52812;48.960;9.108;2022-08-05T06:14:56;28.80;99.90
3086;DHT22;52812;48.960;9.108;2022-08-05T06:17:22;28.90;99.90
3086;DHT22;52812;48.960;9.108;2022-08-05T06:19:48;29.20;99.90
3086;DHT22;52812;48.960;9.108;2022-08-05T06:22:25;29.80;99.90
3086;DHT22;52812;48.960;9.108;2022-08-05T06:24:51;29.70;99.90
3086;DHT22;52812;48.960;9.108;2022-08-05T06:27:17;29.90;99.90
3086;DHT22;52812;48.960;9.108;2022-08-05T06:29:43;30.00;99.90
3086;DHT22;52812;48.960;9.108;2022-08-05T06:32:09;30.10;99.70
3086;DHT22;52812;48.960;9.108;2022-08-05T06:34:35;30.40;99.00
3086;DHT22;52812;48.960;9.108;2022-08-05T06:37:00;30.20;98.80
3086;DHT22;52812;48.960;9.108;2022-08-05T06:39:27;30.20;98.70
3086;DHT22;52812;48.960;9.108;2022-08-05T06:41:53;30.30;98.30
3086;DHT22;52812;48.960;9.108;2022-08-05T06:44:18;30.70;98.00
3086;DHT22;52812;48.960;9.108;2022-08-05T06:46:44;31.50;97.50
3086;DHT22;52812;48.960;9.108;2022-08-05T06:49:09;31.70;96.50
3086;DHT22;52812;48.960;9.108;2022-08-05T06:51:35;31.70;96.20
3086;DHT22;52812;48.960;9.108;2022-08-05T06:54:02;31.50;95.70
3086;DHT22;52812;48.960;9.108;2022-08-05T06:56:29;32.00;95.60
3086;DHT22;52812;48.960;9.108;2022-08-05T06:58:55;31.70;95.70
3086;DHT22;52812;48.960;9.108;2022-08-05T07:01:21;31.50;95.70
3086;DHT22;52812;48.960;9.108;2022-08-05T07:03:47;31.60;95.60
3086;DHT22;52812;48.960;9.108;2022-08-05T07:06:12;31.50;95.60
3086;DHT22;52812;48.960;9.108;2022-08-05T07:08:38;31.90;94.90
3086;DHT22;52812;48.960;9.108;2022-08-05T07:11:03;31.60;95.30
3086;DHT22;52812;48.960;9.108;2022-08-05T07:13:29;31.60;95.00
3086;DHT22;52812;48.960;9.108;2022-08-05T07:16:16;31.50;93.30
3086;DHT22;52812;48.960;9.108;2022-08-05T07:19:00;31.30;94.70
3086;DHT22;52812;48.960;9.108;2022-08-05T07:21:26;31.50;93.60
3086;DHT22;52812;48.960;9.108;2022-08-05T07:23:52;31.50;93.80
3086;DHT22;52812;48.960;9.108;2022-08-05T07:26:17;31.20;93.80
3086;DHT22;52812;48.960;9.108;2022-08-05T07:28:43;31.40;93.90
3086;DHT22;52812;48.960;9.108;2022-08-05T07:31:08;31.40;93.50
3086;DHT22;52812;48.960;9.108;2022-08-05T07:33:34;31.40;92.70
3086;DHT22;52812;48.960;9.108;2022-08-05T07:36:00;30.80;93.20
3086;DHT22;52812;48.960;9.108;2022-08-05T07:38:26;29.80;93.10
3086;DHT22;52812;48.960;9.108;2022-08-05T07:40:51;29.20;93.30
3086;DHT22;52812;48.960;9.108;2022-08-05T07:43:17;29.20;94.10
3086;DHT22;52812;48.960;9.108;2022-08-05T07:45:43;29.90;94.70
3086;DHT22;52812;48.960;9.108;2022-08-05T07:48:12;30.50;93.80
3086;DHT22;52812;48.960;9.108;2022-08-05T07:50:37;30.10;93.70
3086;DHT22;52812;48.960;9.108;2022-08-05T07:53:03;30.00;93.90
3086;DHT22;52812;48.960;9.108;2022-08-05T07:55:29;30.00;94.50
3086;DHT22;52812;48.960;9.108;2022-08-05T07:57:58;30.40;94.70
3086;DHT22;52812;48.960;9.108;2022-08-05T08:00:23;30.60;94.40
3086;DHT22;52812;48.960;9.108;2022-08-05T08:02:50;30.80;94.60
3086;DHT22;52812;48.960;9.108;2022-08-05T08:05:15;31.10;94.60
3086;DHT22;52812;48.960;9.108;2022-08-05T08:07:41;31.60;94.20
3086;DHT22;52812;48.960;9.108;2022-08-05T08:10:07;31.80;93.90
3086;DHT22;52812;48.960;9.108;2022-08-05T08:12:32;32.00;93.60
3086;DHT22;52812;48.960;9.108;2022-08-05T08:14:58;31.90;93.50
3086;DHT22;52812;48.960;9.108;2022-08-05T08:17:23;32.30;93.50
3086;DHT22;52812;48.960;9.108;2022-08-05T08:19:49;32.20;92.10
3086;DHT22;52812;48.960;9.108;2022-08-05T08:22:15;32.30;92.30
3086;DHT22;52812;48.960;9.108;2022-08-05T08:24:40;32.20;91.90
3086;DHT22;52812;48.960;9.108;2022-08-05T08:27:06;32.30;91.70
3086;DHT22;52812;48.960;9.108;2022-08-05T08:29:31;32.20;92.20
3086;DHT22;52812;48.960;9.108;2022-08-05T08:31:57;32.40;91.80
3086;DHT22;52812;48.960;9.108;2022-08-05T08:34:24;32.60;91.70
3086;DHT22;52812;48.960;9.108;2022-08-05T08:36:51;32.60;90.80
3086;DHT22;52812;48.960;9.108;2022-08-05T08:39:17;32.90;90.70
3086;DHT22;52812;48.960;9.108;2022-08-05T08:41:53;32.70;90.20
3086;DHT22;52812;48.960;9.108;2022-08-05T08:46:49;32.70;90.40
3086;DHT22;52812;48.960;9.108;2022-08-05T08:49:17;32.10;89.90
3086;DHT22;52812;48.960;9.108;2022-08-05T08:51:46;32.20;90.10
3086;DHT22;52812;48.960;9.108;2022-08-05T08:54:12;32.00;90.20
3086;DHT22;52812;48.960;9.108;2022-08-05T08:56:38;31.60;90.90
3086;DHT22;52812;48.960;9.108;2022-08-05T08:59:04;31.10;91.00
3086;DHT22;52812;48.960;9.108;2022-08-05T09:01:31;30.80;91.70
3086;DHT22;52812;48.960;9.108;2022-08-05T09:03:58;30.50;91.90
3086;DHT22;52812;48.960;9.108;2022-08-05T09:06:26;30.20;91.60
3086;DHT22;52812;48.960;9.108;2022-08-05T09:08:52;29.90;92.00
3086;DHT22;52812;48.960;9.108;2022-08-05T09:11:18;29.60;92.30
3086;DHT22;52812;48.960;9.108;2022-08-05T09:13:44;29.30;92.60
3086;DHT22;52812;48.960;9.108;2022-08-05T09:16:11;29.70;93.00
3086;DHT22;52812;48.960;9.108;2022-08-05T09:18:37;30.00;92.30
3086;DHT22;52812;48.960;9.108;2022-08-05T09:21:04;30.10;91.50
3086;DHT22;52812;48.960;9.108;2022-08-05T09:23:29;30.00;92.00
3086;DHT22;52812;48.960;9.108;2022-08-05T09:26:07;29.90;92.60
3086;DHT22;52812;48.960;9.108;2022-08-05T09:28:34;30.40;91.90
3086;DHT22;52812;48.960;9.108;2022-08-05T09:31:06;30.60;91.70
3086;DHT22;52812;48.960;9.108;2022-08-05T09:33:52;30.70;91.30
3086;DHT22;52812;48.960;9.108;2022-08-05T09:36:19;30.50;91.40
3086;DHT22;52812;48.960;9.108;2022-08-05T09:39:02;30.60;91.50
3086;DHT22;52812;48.960;9.108;2022-08-05T09:41:28;31.00;91.00
3086;DHT22;52812;48.960;9.108;2022-08-05T09:43:54;31.30;91.00
3086;DHT22;52812;48.960;9.108;2022-08-05T09:46:28;31.40;90.40
3086;DHT22;52812;48.960;9.108;2022-08-05T09:48:59;31.60;89.20
3086;DHT22;52812;48.960;9.108;2022-08-05T09:51:34;31.60;91.00
3086;DHT22;52812;48.960;9.108;2022-08-05T09:54:00;31.60;90.10
3086;DHT22;52812;48.960;9.108;2022-08-05T09:56:31;31.30;89.40
3086;DHT22;52812;48.960;9.108;2022-08-05T09:59:07;30.80;90.40
3086;DHT22;52812;48.960;9.108;2022-08-05T10:01:35;30.60;90.40
3086;DHT22;52812;48.960;9.108;2022-08-05T10:04:05;30.40;90.70
3086;DHT22;52812;48.960;9.108;2022-08-05T10:06:31;30.50;90.90
3086;DHT22;52812;48.960;9.108;2022-08-05T10:09:10;30.80;90.60
3086;DHT22;52812;48.960;9.108;2022-08-05T10:11:36;31.10;90.50
3086;DHT22;52812;48.960;9.108;2022-08-05T10:14:23;30.70;89.60
3086;DHT22;52812;48.960;9.108;2022-08-05T10:16:50;30.60;90.20
3086;DHT22;52812;48.960;9.108;2022-08-05T10:19:17;30.50;90.30
3086;DHT22;52812;48.960;9.108;2022-08-05T10:21:43;30.30;90.30
3086;DHT22;52812;48.960;9.108;2022-08-05T10:24:11;30.40;90.30
3086;DHT22;52812;48.960;9.108;2022-08-05T10:26:42;30.60;90.30
3086;DHT22;52812;48.960;9.108;2022-08-05T10:29:07;30.90;90.70
3086;DHT22;52812;48.960;9.108;2022-08-05T10:31:34;31.00;90.10
3086;DHT22;52812;48.960;9.108;2022-08-05T10:34:01;30.80;90.00
3086;DHT22;52812;48.960;9.108;2022-08-05T10:36:27;30.80;90.30
3086;DHT22;52812;48.960;9.108;2022-08-05T10:39:07;31.20;88.90
3086;DHT22;52812;48.960;9.108;2022-08-05T10:41:42;31.40;87.80
3086;DHT22;52812;48.960;9.108;2022-08-05T10:44:12;31.70;89.70
3086;DHT22;52812;48.960;9.108;2022-08-05T10:46:46;31.90;89.40
3086;DHT22;52812;48.960;9.108;2022-08-05T10:49:16;32.00;88.30
3086;DHT22;52812;48.960;9.108;2022-08-05T10:51:46;32.10;88.60
3086;DHT22;52812;48.960;9.108;2022-08-05T10:54:13;32.30;87.90
3086;DHT22;52812;48.960;9.108;2022-08-05T10:59:10;32.00;84.10
3086;DHT22;52812;48.960;9.108;2022-08-05T11:01:41;31.80;88.00
3086;DHT22;52812;48.960;9.108;2022-08-05T11:09:46;31.30;85.10
3086;DHT22;52812;48.960;9.108;2022-08-05T11:15:22;31.60;86.00
3086;DHT22;52812;48.960;9.108;2022-08-05T11:17:52;31.50;84.40
3086;DHT22;52812;48.960;9.108;2022-08-05T11:20:46;31.20;84.10
3086;DHT22;52812;48.960;9.108;2022-08-05T11:23:35;31.20;85.80
3086;DHT22;52812;48.960;9.108;2022-08-05T11:35:58;31.80;84.20
3086;DHT22;52812;48.960;9.108;2022-08-05T11:41:17;31.90;84.40
3086;DHT22;52812;48.960;9.108;2022-08-05T11:44:03;31.80;83.20
3086;DHT22;52812;48.960;9.108;2022-08-05T11:46:50;31.70;83.40
3086;DHT22;52812;48.960;9.108;2022-08-05T11:49:19;31.90;85.10
3086;DHT22;52812;48.960;9.108;2022-08-05T11:51:46;32.20;84.60
3086;DHT22;52812;48.960;9.108;2022-08-05T11:54:21;32.30;84.50
3086;DHT22;52812;48.960;9.108;2022-08-05T11:56:53;32.60;85.30
3086;DHT22;52812;48.960;9.108;2022-08-05T11:59:24;32.80;84.70
3086;DHT22;52812;48.960;9.108;2022-08-05T12:04:27;33.00;83.30
3086;DHT22;52812;48.960;9.108;2022-08-05T12:06:53;33.10;82.80
3086;DHT22;52812;48.960;9.108;2022-08-05T12:09:28;32.90;81.90
3086;DHT22;52812;48.960;9.108;2022-08-05T12:11:54;32.90;82.80
3086;DHT22;52812;48.960;9.108;2022-08-05T12:14:23;33.00;82.10
3086;DHT22;52812;48.960;9.108;2022-08-05T12:16:49;32.40;81.20
3086;DHT22;52812;48.960;9.108;2022-08-05T12:19:16;32.00;81.90
3086;DHT22;52812;48.960;9.108;2022-08-05T12:21:47;32.30;83.20
3086;DHT22;52812;48.960;9.108;2022-08-05T12:24:20;32.70;81.90
3086;DHT22;52812;48.960;9.108;2022-08-05T12:26:51;32.80;83.30
3086;DHT22;52812;48.960;9.108;2022-08-05T12:31:48;32.70;81.60
3086;DHT22;52812;48.960;9.108;2022-08-05T12:34:16;32.80;81.30
3086;DHT22;52812;48.960;9.108;2022-08-05T12:36:44;32.50;80.30
3086;DHT22;52812;48.960;9.108;2022-08-05T12:39:11;32.40;81.00
3086;DHT22;52812;48.960;9.108;2022-08-05T12:41:38;32.30;81.20
3086;DHT22;52812;48.960;9.108;2022-08-05T12:44:05;32.30;80.80
3086;DHT22;52812;48.960;9.108;2022-08-05T12:46:32;32.30;80.10
3086;DHT22;52812;48.960;9.108;2022-08-05T12:49:02;32.30;81.10
3086;DHT22;52812;48.960;9.108;2022-08-05T12:51:29;32.30;81.50
3086;DHT22;52812;48.960;9.108;2022-08-05T12:53:59;32.20;80.60
3086;DHT22;52812;48.960;9.108;2022-08-05T12:56:26;32.10;80.70
3086;DHT22;52812;48.960;9.108;2022-08-05T12:59:18;32.00;80.40
3086;DHT22;52812;48.960;9.108;2022-08-05T13:02:03;32.30;81.10
3086;DHT22;52812;48.960;9.108;2022-08-05T13:04:35;32.30;81.50
3086;DHT22;52812;48.960;9.108;2022-08-05T13:07:07;32.30;82.00
3086;DHT22;52812;48.960;9.108;2022-08-05T13:09:37;32.10;81.30
3086;DHT22;52812;48.960;9.108;2022-08-05T13:12:05;32.10;80.90
3086;DHT22;52812;48.960;9.108;2022-08-05T13:14:39;32.10;81.40
3086;DHT22;52812;48.960;9.108;2022-08-05T13:19:40;32.30;81.40
3086;DHT22;52812;48.960;9.108;2022-08-05T13:22:06;32.30;81.60
3086;DHT22;52812;48.960;9.108;2022-08-05T13:24:31;32.40;80.60
3086;DHT22;52812;48.960;9.108;2022-08-05T13:26:57;32.40;80.40
3086;DHT22;52812;48.960;9.108;2022-08-05T13:29:23;32.30;80.60
3086;DHT22;52812;48.960;9.108;2022-08-05T13:31:48;32.10;80.50
3086;DHT22;52812;48.960;9.108;2022-08-05T13:34:16;32.10;80.90
3086;DHT22;52812;48.960;9.108;2022-08-05T13:36:42;32.10;81.60
3086;DHT22;52812;48.960;9.108;2022-08-05T13:39:08;32.20;81.10
3086;DHT22;52812;48.960;9.108;2022-08-05T13:41:35;32.30;81.20
3086;DHT22;52812;48.960;9.108;2022-08-05T13:44:02;32.50;82.00
3086;DHT22;52812;48.960;9.108;2022-08-05T13:46:28;32.70;81.40
3086;DHT22;52812;48.960;9.108;2022-08-05T13:48:54;32.70;81.10
3086;DHT22;52812;48.960;9.108;2022-08-05T13:51:31;32.60;81.80
3086;DHT22;52812;48.960;9.108;2022-08-05T13:53:57;32.50;81.20
3086;DHT22;52812;48.960;9.108;2022-08-05T13:56:23;32.60;81.60
3086;DHT22;52812;48.960;9.108;2022-08-05T13:58:49;32.80;80.30
3086;DHT22;52812;48.960;9.108;2022-08-05T14:01:15;32.70;81.20
3086;DHT22;52812;48.960;9.108;2022-08-05T14:03:41;32.70;81.50
3086;DHT22;52812;48.960;9.108;2022-08-05T14:06:06;32.60;80.80
3086;DHT22;52812;48.960;9.108;2022-08-05T14:08:32;32.40;81.60
3086;DHT22;52812;48.960;9.108;2022-08-05T14:10:58;32.20;81.30
3086;DHT22;52812;48.960;9.108;2022-08-05T14:13:23;31.90;82.20
3086;DHT22;52812;48.960;9.108;2022-08-05T14:15:49;31.60;85.50
3086;DHT22;52812;48.960;9.108;2022-08-05T14:18:16;31.20;86.70
3086;DHT22;52812;48.960;9.108;2022-08-05T14:20:41;31.10;87.30
3086;DHT22;52812;48.960;9.108;2022-08-05T14:23:07;30.80;88.80
3086;DHT22;52812;48.960;9.108;2022-08-05T14:25:32;30.40;89.90
3086;DHT22;52812;48.960;9.108;2022-08-05T14:27:58;30.30;90.30
3086;DHT22;52812;48.960;9.108;2022-08-05T14:30:24;30.40;89.90
3086;DHT22;52812;48.960;9.108;2022-08-05T14:32:50;30.30;90.30
3086;DHT22;52812;48.960;9.108;2022-08-05T14:35:15;30.30;90.60
3086;DHT22;52812;48.960;9.108;2022-08-05T14:37:41;30.30;90.60
3086;DHT22;52812;48.960;9.108;2022-08-05T14:40:07;30.10;90.80
3086;DHT22;52812;48.960;9.108;2022-08-05T14:42:33;29.90;91.30
3086;DHT22;52812;48.960;9.108;2022-08-05T14:44:58;30.20;91.60
3086;DHT22;52812;48.960;9.108;2022-08-05T14:47:24;30.10;91.40
3086;DHT22;52812;48.960;9.108;2022-08-05T14:49:49;30.10;91.80
3086;DHT22;52812;48.960;9.108;2022-08-05T14:52:15;29.70;92.10
3086;DHT22;52812;48.960;9.108;2022-08-05T14:54:41;29.60;92.20
3086;DHT22;52812;48.960;9.108;2022-08-05T14:57:07;29.70;92.20
3086;DHT22;52812;48.960;9.108;2022-08-05T14:59:32;29.70;92.20
3086;DHT22;52812;48.960;9.108;2022-08-05T15:01:58;29.70;92.40
3086;DHT22;52812;48.960;9.108;2022-08-05T15:04:25;29.60;92.40
3086;DHT22;52812;48.960;9.108;2022-08-05T15:06:51;29.40;92.50
3086;DHT22;52812;48.960;9.108;2022-08-05T15:09:18;29.40;92.50
3086;DHT22;52812;48.960;9.108;2022-08-05T15:11:44;29.40;92.70
3086;DHT22;52812;48.960;9.108;2022-08-05T15:14:09;29.10;92.90
3086;DHT22;52812;48.960;9.108;2022-08-05T15:16:35;29.00;92.90
3086;DHT22;52812;48.960;9.108;2022-08-05T15:19:01;28.80;93.20
3086;DHT22;52812;48.960;9.108;2022-08-05T15:21:27;28.70;93.20
3086;DHT22;52812;48.960;9.108;2022-08-05T15:23:52;28.60;93.60
3086;DHT22;52812;48.960;9.108;2022-08-05T15:26:18;28.70;93.50
3086;DHT22;52812;48.960;9.108;2022-08-05T15:28:44;28.80;93.40
3086;DHT22;52812;48.960;9.108;2022-08-05T15:31:10;28.80;93.50
3086;DHT22;52812;48.960;9.108;2022-08-05T15:33:36;28.60;93.40
3086;DHT22;52812;48.960;9.108;2022-08-05T15:36:03;28.70;93.60
3086;DHT22;52812;48.960;9.108;2022-08-05T15:38:30;28.60;93.70
3086;DHT22;52812;48.960;9.108;2022-08-05T15:40:55;28.70;93.80
3086;DHT22;52812;48.960;9.108;2022-08-05T15:43:21;28.70;93.60
3086;DHT22;52812;48.960;9.108;2022-08-05T15:45:47;28.70;93.70
3086;DHT22;52812;48.960;9.108;2022-08-05T15:48:12;28.80;93.70
3086;DHT22;52812;48.960;9.108;2022-08-05T15:50:39;28.50;93.60
3086;DHT22;52812;48.960;9.108;2022-08-05T15:53:04;28.50;93.90
3086;DHT22;52812;48.960;9.108;2022-08-05T15:55:30;28.40;93.80
3086;DHT22;52812;48.960;9.108;2022-08-05T15:57:55;28.20;94.00
3086;DHT22;52812;48.960;9.108;2022-08-05T16:00:21;28.10;94.20
3086;DHT22;52812;48.960;9.108;2022-08-05T16:02:47;28.10;94.00
3086;DHT22;52812;48.960;9.108;2022-08-05T16:05:13;28.10;94.30
3086;DHT22;52812;48.960;9.108;2022-08-05T16:07:38;28.20;94.20
3086;DHT22;52812;48.960;9.108;2022-08-05T16:10:04;28.10;94.10
3086;DHT22;52812;48.960;9.108;2022-08-05T16:12:30;28.10;94.00
3086;DHT22;52812;48.960;9.108;2022-08-05T16:14:55;27.90;93.90
3086;DHT22;52812;48.960;9.108;2022-08-05T16:17:21;27.90;94.10
3086;DHT22;52812;48.960;9.108;2022-08-05T16:19:47;27.80;94.10
3086;DHT22;52812;48.960;9.108;2022-08-05T16:22:12;27.70;94.30
3086;DHT22;52812;48.960;9.108;2022-08-05T16:24:39;27.70;94.50
3086;DHT22;52812;48.960;9.108;2022-08-05T16:27:05;27.70;94.50
3086;DHT22;52812;48.960;9.108;2022-08-05T16:29:32;27.80;94.50
3086;DHT22;52812;48.960;9.108;2022-08-05T16:31:58;27.70;94.20
3086;DHT22;52812;48.960;9.108;2022-08-05T16:34:24;27.60;93.70